Pelagia — PGRQ — position and weather

sailwx.info

Track history (hours):
 
Tides and Currents Weather Stations Pressure Air Temp Water Temp Dewpoint Dewpoint Depression Visibility Wind Speed Wind Dir Waves Ship Positions

Oceanographic research ship Pelagia (Netherlands)

Detailed information on ship capabilities available from University of Delaware's Ocean Information Center and ARCUS's ALIAS (Arctic Logistics Information and Support) project.

Last reported at 2020-Sep-27 03:00 UTC. Time now 2020-Sep-27 07:05 UTC.
Position N 51°32' E 002°06'.

Length 66 m; beam 13 m.

Type: Dredging. MMSI: 244925000.

Date/timePositionNaut miles runAvg speedWind from/ knotsBaromVisibWave heightAir tempDewpointWater temp
2020-Sep-27 03:00N 51°32' E 002°06'71 8.9
2020-Sep-26 18:59N 52°23' E 003°27'42 9.7
2020-Sep-26 14:42N 52°47' E 004°23'20 5.3
2020-Sep-26 10:56N 53°00' E 004°48'0 0.0
2020-Sep-26 09:26N 53°00' E 004°48'0 0.0
2020-Sep-26 07:29N 53°00' E 004°48'0 0.0
2020-Sep-26 06:59N 53°00' E 004°48'0 0.0
2020-Sep-26 06:02N 53°00' E 004°48'0 0.0
2020-Sep-26 05:20N 53°00' E 004°48'0 0.0
2020-Sep-26 00:26N 53°00' E 004°48'0 0.0
2020-Sep-25 23:26N 53°00' E 004°48'0 0.0
2020-Sep-25 20:26N 53°00' E 004°48'0 0.0
2020-Sep-25 19:26N 53°00' E 004°48'0 0.0
2020-Sep-25 14:20N 53°00' E 004°48'0 0.0
2020-Sep-25 13:50N 53°00' E 004°48'0 0.0
2020-Sep-25 13:20N 53°00' E 004°48'0 0.0
2020-Sep-25 08:14N 53°00' E 004°48'0 0.0
2020-Sep-25 06:56N 53°00' E 004°48'0 0.0
2020-Sep-25 05:59N 53°00' E 004°48'0 0.0
2020-Sep-25 03:59N 53°00' E 004°48'0 0.0
2020-Sep-25 00:29N 53°00' E 004°48'0 0.0
2020-Sep-24 16:56N 53°00' E 004°48'0 0.0
2020-Sep-24 15:29N 53°00' E 004°48'0 0.0
2020-Sep-24 13:59N 53°00' E 004°48'0 0.0
2020-Sep-24 07:20N 53°00' E 004°48'0 0.0
2020-Sep-24 05:22N 53°00' E 004°48'0 0.0
2020-Sep-24 02:55N 53°00' E 004°48'0 0.0
2020-Sep-24 02:26N 53°00' E 004°48'0 0.0
2020-Sep-24 01:53N 53°00' E 004°48'0 0.0
2020-Sep-23 21:28N 53°00' E 004°48'0 0.0
2020-Sep-23 19:58N 53°00' E 004°48'0 0.0
2020-Sep-23 19:20N 53°00' E 004°48'0 0.0
2020-Sep-23 18:50N 53°00' E 004°48'10 2.7
2020-Sep-23 15:00N 52°53' E 004°36'69 4.2
2020-Sep-22 22:34N 53°50' E 003°32'8 1.3
2020-Sep-22 16:30N 53°53' E 003°20'5 8.5
2020-Sep-22 15:55N 53°55' E 003°12'3 5.4
2020-Sep-22 15:23N 53°57' E 003°11'36 8.1
2020-Sep-22 10:59N 54°17' E 004°02'8 8.5
2020-Sep-22 10:00N 54°24' E 004°10'4 8.4
2020-Sep-22 09:30N 54°27' E 004°14'33 2.0
2020-Sep-21 17:14N 54°55' E 003°42'9 7.0
2020-Sep-21 16:00N 55°03' E 003°37'13 6.5
2020-Sep-21 14:00N 55°13' E 003°22'33 9.4
2020-Sep-21 10:30N 55°15' E 002°25'19 9.6
2020-Sep-21 08:30N 55°16' E 001°51'24 8.0
2020-Sep-21 05:29N 55°33' E 001°21'33 1.1
2020-Sep-19 23:55N 55°08' E 000°44'52 1.8
2020-Sep-18 18:00N 54°23' W 000°04'11 3.4
2020-Sep-18 14:50N 54°14' E 000°03'10 7.6
2020-Sep-18 13:29N 54°04' E 000°09'35 5.5
2020-Sep-18 07:05N 54°28' E 000°53'0 1.6
2020-Sep-18 06:59N 54°28' E 000°53'13 6.4
2020-Sep-18 04:59N 54°15' E 000°53'3 1.6
2020-Sep-18 03:00N 54°17' E 000°49'1 0.4
2020-Sep-18 01:19N 54°17' E 000°49'0 0.1
2020-Sep-18 01:00N 54°17' E 000°49'5 0.9
2020-Sep-17 19:30N 54°15' E 000°56'2 0.8
2020-Sep-17 17:00N 54°13' E 000°58'11 7.1
2020-Sep-17 15:30N 54°02' E 001°02'23 6.4
2020-Sep-17 11:54N 54°16' E 001°33'37 4.3
2020-Sep-17 03:30N 53°47' E 002°11'  
Track history (hours):
 
Tides and Currents Weather Stations Pressure Air Temp Water Temp Dewpoint Dewpoint Depression Visibility Wind Speed Wind Dir Waves Ship Positions

Oceanographic research ship Pelagia (Netherlands)

Detailed information on ship capabilities available from University of Delaware's Ocean Information Center and ARCUS's ALIAS (Arctic Logistics Information and Support) project.

Last reported at 2020-Sep-27 03:00 UTC. Time now 2020-Sep-27 07:05 UTC.
Position N 51°32' E 002°06'.

Length 66 m; beam 13 m.

Type: Dredging. MMSI: 244925000.

Date/timePositionNaut miles runAvg speedWind from/ knotsBaromVisibWave heightAir tempDewpointWater temp
2020-Sep-27 03:00N 51°32' E 002°06'71 8.9
2020-Sep-26 18:59N 52°23' E 003°27'42 9.7
2020-Sep-26 14:42N 52°47' E 004°23'20 5.3
2020-Sep-26 10:56N 53°00' E 004°48'0 0.0
2020-Sep-26 09:26N 53°00' E 004°48'0 0.0
2020-Sep-26 07:29N 53°00' E 004°48'0 0.0
2020-Sep-26 06:59N 53°00' E 004°48'0 0.0
2020-Sep-26 06:02N 53°00' E 004°48'0 0.0
2020-Sep-26 05:20N 53°00' E 004°48'0 0.0
2020-Sep-26 00:26N 53°00' E 004°48'0 0.0
2020-Sep-25 23:26N 53°00' E 004°48'0 0.0
2020-Sep-25 20:26N 53°00' E 004°48'0 0.0
2020-Sep-25 19:26N 53°00' E 004°48'0 0.0
2020-Sep-25 14:20N 53°00' E 004°48'0 0.0
2020-Sep-25 13:50N 53°00' E 004°48'0 0.0
2020-Sep-25 13:20N 53°00' E 004°48'0 0.0
2020-Sep-25 08:14N 53°00' E 004°48'0 0.0
2020-Sep-25 06:56N 53°00' E 004°48'0 0.0
2020-Sep-25 05:59N 53°00' E 004°48'0 0.0
2020-Sep-25 03:59N 53°00' E 004°48'0 0.0
2020-Sep-25 00:29N 53°00' E 004°48'0 0.0
2020-Sep-24 16:56N 53°00' E 004°48'0 0.0
2020-Sep-24 15:29N 53°00' E 004°48'0 0.0
2020-Sep-24 13:59N 53°00' E 004°48'0 0.0
2020-Sep-24 07:20N 53°00' E 004°48'0 0.0
2020-Sep-24 05:22N 53°00' E 004°48'0 0.0
2020-Sep-24 02:55N 53°00' E 004°48'0 0.0
2020-Sep-24 02:26N 53°00' E 004°48'0 0.0
2020-Sep-24 01:53N 53°00' E 004°48'0 0.0
2020-Sep-23 21:28N 53°00' E 004°48'0 0.0
2020-Sep-23 19:58N 53°00' E 004°48'0 0.0
2020-Sep-23 19:20N 53°00' E 004°48'0 0.0
2020-Sep-23 18:50N 53°00' E 004°48'10 2.7
2020-Sep-23 15:00N 52°53' E 004°36'69 4.2
2020-Sep-22 22:34N 53°50' E 003°32'8 1.3
2020-Sep-22 16:30N 53°53' E 003°20'5 8.5
2020-Sep-22 15:55N 53°55' E 003°12'3 5.4
2020-Sep-22 15:23N 53°57' E 003°11'36 8.1
2020-Sep-22 10:59N 54°17' E 004°02'8 8.5
2020-Sep-22 10:00N 54°24' E 004°10'4 8.4
2020-Sep-22 09:30N 54°27' E 004°14'33 2.0
2020-Sep-21 17:14N 54°55' E 003°42'9 7.0
2020-Sep-21 16:00N 55°03' E 003°37'13 6.5
2020-Sep-21 14:00N 55°13' E 003°22'33 9.4
2020-Sep-21 10:30N 55°15' E 002°25'19 9.6
2020-Sep-21 08:30N 55°16' E 001°51'24 8.0
2020-Sep-21 05:29N 55°33' E 001°21'33 1.1
2020-Sep-19 23:55N 55°08' E 000°44'52 1.8
2020-Sep-18 18:00N 54°23' W 000°04'11 3.4
2020-Sep-18 14:50N 54°14' E 000°03'10 7.6
2020-Sep-18 13:29N 54°04' E 000°09'35 5.5
2020-Sep-18 07:05N 54°28' E 000°53'0 1.6
2020-Sep-18 06:59N 54°28' E 000°53'13 6.4
2020-Sep-18 04:59N 54°15' E 000°53'3 1.6
2020-Sep-18 03:00N 54°17' E 000°49'1 0.4
2020-Sep-18 01:19N 54°17' E 000°49'0 0.1
2020-Sep-18 01:00N 54°17' E 000°49'5 0.9
2020-Sep-17 19:30N 54°15' E 000°56'2 0.8
2020-Sep-17 17:00N 54°13' E 000°58'11 7.1
2020-Sep-17 15:30N 54°02' E 001°02'23 6.4
2020-Sep-17 11:54N 54°16' E 001°33'37 4.3
2020-Sep-17 03:30N 53°47' E 002°11'  

Dump ship's entire track history